createdAt,value
2023-04-12T00:01:43.781Z,5.53
2023-04-12T00:04:10.743Z,5.72
2023-04-12T00:06:37.949Z,5.78
2023-04-12T00:09:04.826Z,5.48
2023-04-12T00:11:32.250Z,5.35
2023-04-12T00:13:59.141Z,5.49
2023-04-12T00:16:26.379Z,5.52
2023-04-12T00:18:53.538Z,5.68
2023-04-12T00:21:20.390Z,5.81
2023-04-12T00:23:47.339Z,6.03
2023-04-12T00:26:14.214Z,6.17
2023-04-12T00:28:42.129Z,6.23
2023-04-12T00:31:09.356Z,6.31
2023-04-12T00:33:36.229Z,6.35
2023-04-12T00:36:03.385Z,6.31
2023-04-12T00:38:30.306Z,6.29
2023-04-12T00:40:57.702Z,6.37
2023-04-12T00:43:24.573Z,6.45
2023-04-12T00:45:51.514Z,6.57
2023-04-12T00:48:18.397Z,6.72
2023-04-12T00:50:45.235Z,6.46
2023-04-12T00:53:14.434Z,6.41
2023-04-12T00:55:44.069Z,6.44
2023-04-12T00:58:11.064Z,6.49
2023-04-12T01:00:38.138Z,6.23
2023-04-12T01:03:05.617Z,6.15
2023-04-12T01:05:40.634Z,6.08
2023-04-12T01:08:33.094Z,5.35
2023-04-12T01:11:30.210Z,4.94
2023-04-12T01:14:26.252Z,4.88
2023-04-12T01:16:57.698Z,4.68
2023-04-12T01:19:50.360Z,4.47
2023-04-12T01:22:32.039Z,4.47
2023-04-12T01:25:32.480Z,4.32
2023-04-12T01:28:07.990Z,4.23
2023-04-12T01:30:36.510Z,4.12
2023-04-12T01:33:06.186Z,4.14
2023-04-12T01:35:35.383Z,4.22
2023-04-12T01:38:04.373Z,4.34
2023-04-12T01:40:31.759Z,4.66
2023-04-12T01:43:05.708Z,4.92
2023-04-12T01:45:32.761Z,4.85
2023-04-12T01:48:00.428Z,4.92
2023-04-12T01:50:36.273Z,5.01
2023-04-12T01:53:32.660Z,5.03
2023-04-12T01:56:04.621Z,5.05
2023-04-12T01:58:32.160Z,5.08
2023-04-12T02:01:00.499Z,4.93
2023-04-12T02:03:29.123Z,4.74
2023-04-12T02:05:58.206Z,4.49
2023-04-12T02:08:25.999Z,4.33
2023-04-12T02:10:52.963Z,4.15
2023-04-12T02:13:19.798Z,4.12
2023-04-12T02:15:46.681Z,4.09
2023-04-12T02:18:13.615Z,4.03
2023-04-12T02:20:40.632Z,4.05
2023-04-12T02:23:07.484Z,4.00
2023-04-12T02:25:34.397Z,3.98
2023-04-12T02:28:01.183Z,4.03
2023-04-12T02:30:27.992Z,4.02
2023-04-12T02:32:55.107Z,4.02
2023-04-12T02:35:22.052Z,4.09
2023-04-12T02:37:48.915Z,4.31
2023-04-12T02:40:15.901Z,4.68
2023-04-12T02:42:43.364Z,4.60
2023-04-12T02:45:11.641Z,4.43
2023-04-12T02:47:38.749Z,4.35
2023-04-12T02:50:06.248Z,4.33
2023-04-12T02:52:33.177Z,4.47
2023-04-12T02:55:00.165Z,4.70
2023-04-12T02:57:27.065Z,4.99
2023-04-12T02:59:54.645Z,5.08
2023-04-12T03:02:22.483Z,4.89
2023-04-12T03:04:49.538Z,4.78
2023-04-12T03:07:17.924Z,4.59
2023-04-12T03:09:46.244Z,4.72
2023-04-12T03:12:13.163Z,4.68
2023-04-12T03:14:39.977Z,4.68
2023-04-12T03:17:06.832Z,4.57
2023-04-12T03:19:33.715Z,4.69
2023-04-12T03:22:00.745Z,4.62
2023-04-12T03:24:28.316Z,4.70
2023-04-12T03:26:55.205Z,4.91
2023-04-12T03:29:22.042Z,5.11
2023-04-12T03:31:48.982Z,5.24
2023-04-12T03:34:15.848Z,5.40
2023-04-12T03:36:42.766Z,5.45
2023-04-12T03:39:09.745Z,5.41
2023-04-12T03:41:36.530Z,5.25
2023-04-12T03:44:03.567Z,5.29
2023-04-12T03:46:30.563Z,5.36
2023-04-12T03:48:57.454Z,5.29
2023-04-12T03:51:24.540Z,5.22
2023-04-12T03:53:51.430Z,5.27
2023-04-12T03:56:18.264Z,5.34
2023-04-12T03:58:45.113Z,5.31
2023-04-12T04:01:11.984Z,5.12
2023-04-12T04:03:38.944Z,5.08
2023-04-12T04:06:06.188Z,5.12
2023-04-12T04:08:33.119Z,5.31
2023-04-12T04:11:00.639Z,5.25
2023-04-12T04:13:27.399Z,5.19
2023-04-12T04:16:03.864Z,5.43
2023-04-12T04:18:30.940Z,5.64
2023-04-12T04:20:57.847Z,5.86
2023-04-12T04:23:25.310Z,6.01
2023-04-12T04:25:52.179Z,6.06
2023-04-12T04:28:19.595Z,6.20
2023-04-12T04:30:46.694Z,6.29
2023-04-12T04:33:14.053Z,6.47
2023-04-12T04:35:40.933Z,6.54
2023-04-12T04:38:07.999Z,6.43
2023-04-12T04:40:37.776Z,6.46
2023-04-12T04:43:06.412Z,6.55
2023-04-12T04:45:34.694Z,6.36
2023-04-12T04:48:01.572Z,6.11
2023-04-12T04:50:28.405Z,6.38
2023-04-12T04:52:55.914Z,6.59
2023-04-12T04:55:22.723Z,6.55
2023-04-12T04:57:49.585Z,6.88
2023-04-12T05:00:16.920Z,6.93
2023-04-12T05:02:43.911Z,6.95
2023-04-12T05:05:11.896Z,7.08
2023-04-12T05:07:38.715Z,7.19
2023-04-12T05:10:05.968Z,6.99
2023-04-12T05:12:32.707Z,7.13
2023-04-12T05:15:11.224Z,7.37
2023-04-12T05:17:38.809Z,7.40
2023-04-12T05:20:06.983Z,7.62
2023-04-12T05:22:34.827Z,7.79
2023-04-12T05:25:01.638Z,7.96
2023-04-12T05:27:30.071Z,7.50
2023-04-12T05:29:57.694Z,6.98
2023-04-12T05:32:25.815Z,6.67
2023-04-12T05:34:52.880Z,6.52
2023-04-12T05:37:19.675Z,6.35
2023-04-12T05:39:46.543Z,6.34
2023-04-12T05:42:13.456Z,6.11
2023-04-12T05:44:40.355Z,6.31
2023-04-12T05:47:07.233Z,6.18
2023-04-12T05:49:34.230Z,6.62
2023-04-12T05:52:01.036Z,6.69
2023-04-12T05:54:27.868Z,6.71
2023-04-12T05:56:55.422Z,6.71
2023-04-12T05:59:22.366Z,6.62
2023-04-12T06:01:49.454Z,6.85
2023-04-12T06:04:16.625Z,6.94
2023-04-12T06:06:43.656Z,6.92
2023-04-12T06:09:10.845Z,7.09
2023-04-12T06:11:37.752Z,7.22
2023-04-12T06:14:04.806Z,7.04
2023-04-12T06:16:31.663Z,7.26
2023-04-12T06:18:59.034Z,7.20
2023-04-12T06:21:27.028Z,7.24
2023-04-12T06:23:53.874Z,7.63
2023-04-12T06:26:20.856Z,7.58
2023-04-12T06:28:47.808Z,7.53
2023-04-12T06:31:16.600Z,7.90
2023-04-12T06:33:43.520Z,7.95
2023-04-12T06:36:10.609Z,7.80
2023-04-12T06:38:37.520Z,7.63
2023-04-12T06:41:04.713Z,7.68
2023-04-12T06:43:31.491Z,7.58
2023-04-12T06:45:58.302Z,7.90
2023-04-12T06:48:25.304Z,8.10
2023-04-12T06:50:52.087Z,8.36
2023-04-12T06:53:18.966Z,8.28
2023-04-12T06:55:45.829Z,8.07
2023-04-12T06:58:12.573Z,7.87
2023-04-12T07:00:39.434Z,7.77
2023-04-12T07:03:06.400Z,8.17
2023-04-12T07:05:33.563Z,8.21
2023-04-12T07:08:00.433Z,8.51
2023-04-12T07:10:27.384Z,8.58
2023-04-12T07:12:54.214Z,8.60
2023-04-12T07:15:21.026Z,8.89
2023-04-12T07:17:47.981Z,8.97
2023-04-12T07:20:14.855Z,9.20
2023-04-12T07:22:41.697Z,8.99
2023-04-12T07:25:08.770Z,8.73
2023-04-12T07:27:35.729Z,8.77
2023-04-12T07:30:02.891Z,8.53
2023-04-12T07:32:29.773Z,8.81
2023-04-12T07:34:56.691Z,9.25
2023-04-12T07:37:23.604Z,9.50
2023-04-12T07:39:50.646Z,10.14
2023-04-12T07:42:17.867Z,10.87
2023-04-12T07:44:44.754Z,11.29
2023-04-12T07:47:11.674Z,11.60
2023-04-12T07:49:38.510Z,11.62
2023-04-12T07:52:05.555Z,10.41
2023-04-12T07:54:32.598Z,10.16
2023-04-12T07:57:01.107Z,9.78
2023-04-12T07:59:28.038Z,9.61
2023-04-12T08:01:55.088Z,9.44
2023-04-12T08:04:22.137Z,9.50
2023-04-12T08:06:49.065Z,9.66
2023-04-12T08:09:16.079Z,8.98
2023-04-12T08:11:42.982Z,8.64
2023-04-12T08:14:09.814Z,9.06
2023-04-12T08:16:36.796Z,9.22
2023-04-12T08:19:03.646Z,9.23
2023-04-12T08:21:30.728Z,8.80
2023-04-12T08:23:57.930Z,9.31
2023-04-12T08:26:25.689Z,9.86
2023-04-12T08:28:52.991Z,10.43
2023-04-12T08:31:20.083Z,10.96
2023-04-12T08:33:46.931Z,10.05
2023-04-12T08:36:13.793Z,9.84
2023-04-12T08:38:45.526Z,9.43
2023-04-12T08:41:13.293Z,9.49
2023-04-12T08:43:44.566Z,9.49
2023-04-12T08:46:12.012Z,8.70
2023-04-12T08:48:40.715Z,8.53
2023-04-12T08:51:08.621Z,8.18
2023-04-12T08:53:35.508Z,8.39
2023-04-12T08:56:03.154Z,8.55
2023-04-12T08:58:31.003Z,8.53
2023-04-12T09:00:58.521Z,8.42
2023-04-12T09:03:25.562Z,8.82
2023-04-12T09:05:52.611Z,9.67
2023-04-12T09:08:19.504Z,9.60
2023-04-12T09:10:46.331Z,10.05
2023-04-12T09:13:13.204Z,10.16
2023-04-12T09:15:51.841Z,10.20
2023-04-12T09:18:19.023Z,10.02
2023-04-12T09:20:45.861Z,9.72
2023-04-12T09:23:20.901Z,9.80
2023-04-12T09:25:48.298Z,9.98
2023-04-12T09:28:20.324Z,10.34
2023-04-12T09:30:47.360Z,10.41
2023-04-12T09:33:14.156Z,10.50
2023-04-12T09:35:41.041Z,10.56
2023-04-12T09:38:09.262Z,10.69
2023-04-12T09:40:37.039Z,10.99
2023-04-12T09:43:04.147Z,11.50
2023-04-12T09:45:36.123Z,12.08
2023-04-12T09:48:03.137Z,11.36
2023-04-12T09:50:31.094Z,10.42
2023-04-12T09:53:16.499Z,10.68
2023-04-12T09:55:48.477Z,11.33
2023-04-12T09:58:19.924Z,11.76
2023-04-12T10:00:47.946Z,10.93
2023-04-12T10:03:14.853Z,11.30
2023-04-12T10:05:42.245Z,12.05
2023-04-12T10:08:12.314Z,10.88
2023-04-12T10:10:39.456Z,10.78
2023-04-12T10:13:07.235Z,11.28
2023-04-12T10:15:36.118Z,11.13
2023-04-12T10:18:03.123Z,10.47
2023-04-12T10:20:30.772Z,10.75
2023-04-12T10:22:57.803Z,11.16
2023-04-12T10:25:26.882Z,11.07
2023-04-12T10:27:54.094Z,10.86
2023-04-12T10:30:25.469Z,10.71
2023-04-12T10:33:07.504Z,10.91
2023-04-12T10:35:58.371Z,10.32
2023-04-12T10:38:25.601Z,10.84
2023-04-12T10:41:12.413Z,10.89
2023-04-12T10:43:40.558Z,10.60
2023-04-12T10:46:07.429Z,10.86
2023-04-12T10:48:38.967Z,10.55
2023-04-12T10:51:19.110Z,11.05
2023-04-12T10:53:46.962Z,10.78
2023-04-12T10:56:43.756Z,11.26
2023-04-12T10:59:11.858Z,11.36
2023-04-12T11:01:39.882Z,11.36
2023-04-12T11:04:22.498Z,11.63
2023-04-12T11:06:55.470Z,11.01
2023-04-12T11:09:33.448Z,10.62
2023-04-12T11:12:07.435Z,10.69
2023-04-12T11:14:39.101Z,10.98
2023-04-12T11:17:06.157Z,11.05
2023-04-12T11:19:34.201Z,11.49
2023-04-12T11:22:01.715Z,11.68
2023-04-12T11:24:28.624Z,11.25
2023-04-12T11:26:56.522Z,11.27
2023-04-12T11:29:27.538Z,11.11
2023-04-12T11:31:54.701Z,11.13
2023-04-12T11:34:22.460Z,11.52
2023-04-12T11:36:53.616Z,11.02
2023-04-12T11:39:21.161Z,11.32
2023-04-12T11:41:49.210Z,10.68
2023-04-12T11:44:16.905Z,11.12
2023-04-12T11:46:43.837Z,11.36
2023-04-12T11:49:10.707Z,11.13
2023-04-12T11:51:37.600Z,10.68
2023-04-12T11:54:04.494Z,10.32
2023-04-12T11:56:31.400Z,10.59
2023-04-12T11:58:58.633Z,11.13
2023-04-12T12:01:25.595Z,10.72
2023-04-12T12:03:52.933Z,10.78
2023-04-12T12:06:20.781Z,10.56
2023-04-12T12:08:52.250Z,10.13
2023-04-12T12:11:23.477Z,9.85
2023-04-12T12:13:52.930Z,10.04
2023-04-12T12:16:25.775Z,10.34
2023-04-12T12:18:53.055Z,10.48
2023-04-12T12:21:20.431Z,10.36
2023-04-12T12:23:48.124Z,10.24
2023-04-12T12:26:22.844Z,10.40
2023-04-12T12:28:51.911Z,10.68
2023-04-12T12:31:20.958Z,11.09
2023-04-12T12:33:47.875Z,10.88
2023-04-12T12:36:18.812Z,9.83
2023-04-12T12:38:45.706Z,9.44
2023-04-12T12:41:20.575Z,9.37
2023-04-12T12:43:52.511Z,9.76
2023-04-12T12:46:20.880Z,9.58
2023-04-12T12:48:48.489Z,9.56
2023-04-12T12:51:16.727Z,9.65
2023-04-12T12:53:44.192Z,10.01
2023-04-12T12:56:13.144Z,10.22
2023-04-12T12:58:41.160Z,10.40
2023-04-12T13:01:09.273Z,10.16
2023-04-12T13:03:36.242Z,10.28
2023-04-12T13:06:03.407Z,10.71
2023-04-12T13:08:30.821Z,10.88
2023-04-12T13:10:57.560Z,11.11
2023-04-12T13:13:24.409Z,10.51
2023-04-12T13:15:51.522Z,10.22
2023-04-12T13:18:18.430Z,10.23
2023-04-12T13:20:45.277Z,10.75
2023-04-12T13:23:12.280Z,11.26
2023-04-12T13:25:39.534Z,11.79
2023-04-12T13:28:06.572Z,11.55
2023-04-12T13:30:33.395Z,10.70
2023-04-12T13:33:00.259Z,10.42
2023-04-12T13:35:27.198Z,10.90
2023-04-12T13:37:54.034Z,11.47
2023-04-12T13:40:20.892Z,11.97
2023-04-12T13:42:50.540Z,12.64
2023-04-12T13:45:27.022Z,13.05
2023-04-12T13:47:53.988Z,13.13
2023-04-12T13:50:20.843Z,13.22
2023-04-12T13:52:47.634Z,13.16
2023-04-12T13:55:14.511Z,13.20
2023-04-12T13:57:41.447Z,13.35
2023-04-12T14:00:08.980Z,13.54
2023-04-12T14:02:35.976Z,13.50
2023-04-12T14:05:04.417Z,13.42
2023-04-12T14:07:31.409Z,13.24
2023-04-12T14:09:58.208Z,12.73
2023-04-12T14:12:25.153Z,12.64
2023-04-12T14:14:52.084Z,13.02
2023-04-12T14:17:19.015Z,12.58
2023-04-12T14:19:46.056Z,11.88
2023-04-12T14:22:12.921Z,11.84
2023-04-12T14:24:39.753Z,11.55
2023-04-12T14:27:06.621Z,11.36
2023-04-12T14:29:33.878Z,10.75
2023-04-12T14:32:00.765Z,9.43
2023-04-12T14:34:27.727Z,8.85
2023-04-12T14:36:55.583Z,8.57
2023-04-12T14:39:22.457Z,8.39
2023-04-12T14:41:49.338Z,8.29
2023-04-12T14:44:18.804Z,8.29
2023-04-12T14:46:47.032Z,8.22
2023-04-12T14:49:13.968Z,8.34
2023-04-12T14:51:40.845Z,8.46
2023-04-12T14:54:07.963Z,8.53
2023-04-12T14:56:41.836Z,8.66
2023-04-12T14:59:12.004Z,8.85
2023-04-12T15:01:41.859Z,9.15
2023-04-12T15:04:08.958Z,9.48
2023-04-12T15:06:36.178Z,9.78
2023-04-12T15:09:05.042Z,9.94
2023-04-12T15:11:33.369Z,10.03
2023-04-12T15:14:00.568Z,10.13
2023-04-12T15:16:27.857Z,10.21
2023-04-12T15:19:00.581Z,10.30
2023-04-12T15:21:29.520Z,10.45
2023-04-12T15:23:56.573Z,10.58
2023-04-12T15:26:23.856Z,10.79
2023-04-12T15:28:50.926Z,11.00
2023-04-12T15:31:17.794Z,11.11
2023-04-12T15:33:44.684Z,10.78
2023-04-12T15:36:11.624Z,10.73
2023-04-12T15:38:41.471Z,10.60
2023-04-12T15:41:08.908Z,10.70
2023-04-12T15:43:35.829Z,10.51
2023-04-12T15:46:02.892Z,10.46
2023-04-12T15:48:29.930Z,10.31
2023-04-12T15:50:57.182Z,10.12
2023-04-12T15:53:26.055Z,9.89
2023-04-12T15:55:53.205Z,9.79
2023-04-12T15:58:20.128Z,9.56
2023-04-12T16:00:46.973Z,9.58
2023-04-12T16:03:14.198Z,9.60
2023-04-12T16:05:42.321Z,9.76
2023-04-12T16:08:10.893Z,9.80
2023-04-12T16:10:37.703Z,9.95
2023-04-12T16:13:04.595Z,9.82
2023-04-12T16:15:31.727Z,9.92
2023-04-12T16:17:58.549Z,9.96
2023-04-12T16:20:27.078Z,9.94
2023-04-12T16:22:54.669Z,9.95
2023-04-12T16:25:22.924Z,9.87
2023-04-12T16:27:50.158Z,9.91
2023-04-12T16:30:19.125Z,9.92
2023-04-12T16:32:46.525Z,9.58
2023-04-12T16:35:17.155Z,9.55
2023-04-12T16:37:45.382Z,9.50
2023-04-12T16:40:12.459Z,9.47
2023-04-12T16:42:42.221Z,9.37
2023-04-12T16:45:10.738Z,9.23
2023-04-12T16:47:38.352Z,9.14
2023-04-12T16:50:05.832Z,9.01
2023-04-12T16:52:32.740Z,9.00
2023-04-12T16:55:00.037Z,8.81
2023-04-12T16:57:27.081Z,8.80
2023-04-12T16:59:55.223Z,8.86
2023-04-12T17:02:22.174Z,8.78
2023-04-12T17:04:49.353Z,8.73
2023-04-12T17:07:16.225Z,8.84
2023-04-12T17:09:43.030Z,8.81
2023-04-12T17:12:09.913Z,8.77
2023-04-12T17:14:36.718Z,8.77
2023-04-12T17:17:06.232Z,8.68
2023-04-12T17:19:33.442Z,8.56
2023-04-12T17:22:00.359Z,8.52
2023-04-12T17:24:32.034Z,8.53
2023-04-12T17:27:01.838Z,8.39
2023-04-12T17:29:28.667Z,8.41
2023-04-12T17:31:55.682Z,8.43
2023-04-12T17:34:22.771Z,8.37
2023-04-12T17:36:49.610Z,8.35
2023-04-12T17:39:16.418Z,8.29
2023-04-12T17:41:43.464Z,8.37
2023-04-12T17:44:10.215Z,8.35
2023-04-12T17:46:37.274Z,8.33
2023-04-12T17:49:04.197Z,8.36
2023-04-12T17:51:31.620Z,8.31
2023-04-12T17:53:58.469Z,8.31
2023-04-12T17:56:26.307Z,8.37
2023-04-12T17:58:55.845Z,8.34
2023-04-12T18:01:22.929Z,8.26
2023-04-12T18:03:50.319Z,8.32
2023-04-12T18:06:17.515Z,8.19
2023-04-12T18:08:44.435Z,8.27
2023-04-12T18:11:14.339Z,8.29
2023-04-12T18:13:41.199Z,8.26
2023-04-12T18:16:08.092Z,8.32
2023-04-12T18:18:34.945Z,8.32
2023-04-12T18:21:06.051Z,8.28
2023-04-12T18:23:32.948Z,8.23
2023-04-12T18:26:00.031Z,8.28
2023-04-12T18:28:26.872Z,8.10
2023-04-12T18:30:57.280Z,8.07
2023-04-12T18:33:24.316Z,8.12
2023-04-12T18:35:51.290Z,8.01
2023-04-12T18:38:18.186Z,7.98
2023-04-12T18:40:45.043Z,7.94
2023-04-12T18:43:11.903Z,7.95
2023-04-12T18:45:39.585Z,7.99
2023-04-12T18:48:06.758Z,8.00
2023-04-12T18:50:33.664Z,7.98
2023-04-12T18:53:00.602Z,8.00
2023-04-12T18:55:30.701Z,7.97
2023-04-12T18:57:57.542Z,7.96
2023-04-12T19:00:24.496Z,7.91
2023-04-12T19:02:51.406Z,7.79
2023-04-12T19:05:18.410Z,7.72
2023-04-12T19:07:45.287Z,7.72
2023-04-12T19:10:12.851Z,7.68
2023-04-12T19:12:40.166Z,7.79
2023-04-12T19:15:08.100Z,7.80
2023-04-12T19:17:35.185Z,7.81
2023-04-12T19:20:03.023Z,7.69
2023-04-12T19:22:32.438Z,7.65
2023-04-12T19:25:01.187Z,7.60
2023-04-12T19:27:28.640Z,7.55
2023-04-12T19:29:56.453Z,7.43
2023-04-12T19:32:24.709Z,7.37
2023-04-12T19:34:54.164Z,7.40
2023-04-12T19:37:21.795Z,7.44
2023-04-12T19:39:48.783Z,7.39
2023-04-12T19:42:16.272Z,7.53
2023-04-12T19:44:44.260Z,7.45
2023-04-12T19:47:15.572Z,7.47
2023-04-12T19:49:44.553Z,7.47
2023-04-12T19:52:14.790Z,7.38
2023-04-12T19:54:42.756Z,7.37
2023-04-12T19:57:10.142Z,7.45
2023-04-12T19:59:37.804Z,7.42
2023-04-12T20:02:06.945Z,7.43
2023-04-12T20:04:40.690Z,7.24
2023-04-12T20:07:11.606Z,6.30
2023-04-12T20:09:38.786Z,6.40
2023-04-12T20:12:06.735Z,6.49
2023-04-12T20:14:33.750Z,6.51
2023-04-12T20:17:05.069Z,6.51
2023-04-12T20:19:32.722Z,6.54
2023-04-12T20:22:01.177Z,6.38
2023-04-12T20:24:32.846Z,6.28
2023-04-12T20:27:05.951Z,6.49
2023-04-12T20:29:33.782Z,6.67
2023-04-12T20:32:01.551Z,6.79
2023-04-12T20:34:29.829Z,6.97
2023-04-12T20:36:58.039Z,7.09
2023-04-12T20:39:25.063Z,6.96
2023-04-12T20:41:52.431Z,6.97
2023-04-12T20:44:19.373Z,6.72
2023-04-12T20:46:46.207Z,7.01
2023-04-12T20:49:13.439Z,7.18
2023-04-12T20:51:40.631Z,7.30
2023-04-12T20:54:08.219Z,7.32
2023-04-12T20:56:36.577Z,7.44
2023-04-12T20:59:07.366Z,7.33
2023-04-12T21:01:35.268Z,7.25
2023-04-12T21:04:04.259Z,7.27
2023-04-12T21:06:32.451Z,7.26
2023-04-12T21:08:59.893Z,7.26
2023-04-12T21:11:27.348Z,7.17
2023-04-12T21:13:54.331Z,7.11
2023-04-12T21:16:22.447Z,7.04
2023-04-12T21:18:49.697Z,7.04
2023-04-12T21:21:17.261Z,6.76
2023-04-12T21:23:44.563Z,6.78
2023-04-12T21:26:12.004Z,6.72
2023-04-12T21:28:38.851Z,6.75
2023-04-12T21:31:06.088Z,6.79
2023-04-12T21:33:33.325Z,6.79
2023-04-12T21:36:00.486Z,6.89
2023-04-12T21:38:27.533Z,6.96
2023-04-12T21:40:54.602Z,6.92
2023-04-12T21:43:21.718Z,6.76
2023-04-12T21:45:48.583Z,6.67
2023-04-12T21:48:15.519Z,6.61
2023-04-12T21:50:42.556Z,6.60
2023-04-12T21:53:09.527Z,6.54
2023-04-12T21:55:36.522Z,6.58
2023-04-12T21:58:06.793Z,6.55
2023-04-12T22:00:33.779Z,6.67
2023-04-12T22:03:01.165Z,6.69
2023-04-12T22:05:28.073Z,6.68
2023-04-12T22:07:55.516Z,6.75
2023-04-12T22:10:22.439Z,6.70
2023-04-12T22:12:49.322Z,6.78
2023-04-12T22:15:17.476Z,6.73
2023-04-12T22:17:44.386Z,6.74
2023-04-12T22:20:11.865Z,6.68
2023-04-12T22:22:40.031Z,6.62
2023-04-12T22:25:08.172Z,6.51
2023-04-12T22:27:35.062Z,6.30
2023-04-12T22:30:02.121Z,6.21
2023-04-12T22:32:29.007Z,6.04
2023-04-12T22:35:05.300Z,6.16
2023-04-12T22:37:35.932Z,6.24
2023-04-12T22:40:02.718Z,6.11
2023-04-12T22:42:29.533Z,6.15
2023-04-12T22:44:59.933Z,6.16
2023-04-12T22:47:27.336Z,6.16
2023-04-12T22:49:54.163Z,6.25
2023-04-12T22:52:21.818Z,6.20
2023-04-12T22:54:49.489Z,6.15
2023-04-12T22:57:16.486Z,6.16
2023-04-12T22:59:43.481Z,6.25
2023-04-12T23:02:10.479Z,6.32
2023-04-12T23:04:37.456Z,6.44
2023-04-12T23:07:04.431Z,6.53
2023-04-12T23:09:31.341Z,6.65
2023-04-12T23:11:58.188Z,6.69
2023-04-12T23:14:25.112Z,6.65
2023-04-12T23:16:51.988Z,6.64
2023-04-12T23:19:18.928Z,6.65
2023-04-12T23:21:45.880Z,6.65
2023-04-12T23:24:12.626Z,6.60
2023-04-12T23:26:39.474Z,6.56
2023-04-12T23:29:06.397Z,6.61
2023-04-12T23:31:33.403Z,6.63
2023-04-12T23:34:00.613Z,6.72
2023-04-12T23:36:27.453Z,6.60
2023-04-12T23:38:54.277Z,6.28
2023-04-12T23:41:21.743Z,5.89
2023-04-12T23:43:48.711Z,5.31
2023-04-12T23:46:15.576Z,5.32
2023-04-12T23:48:42.501Z,5.55
2023-04-12T23:51:09.432Z,5.50
2023-04-12T23:53:36.614Z,5.71
2023-04-12T23:56:03.617Z,5.95
2023-04-12T23:58:30.604Z,6.00
